Time;durP1;ratioP1;P1;durP2;ratioP2;P2;SDS_P1;SDS_P2;PMS_P1;PMS_P2;Temp;Humidity;BMP_temperature;BMP_pressure;BME280_temperature;BME280_humidity;BME280_pressure;Samples;Min_cycle;Max_cycle;Signal;HPM_P1;HPM_P2
2021/03/01 00:00:37;;;;;;;14.18;9.45;;;;;;;2.00;82.54;100727.74;1742970;82;21280;-81
2021/03/01 00:03:45;;;;;;;17.95;12.85;;;;;;;2.04;82.45;100718.45;1742740;82;21283;-81
2021/03/01 00:06:51;;;;;;;27.62;17.35;;;;;;;2.09;82.37;100718.61;1742899;82;21742;-81
2021/03/01 00:09:52;;;;;;;34.03;18.40;;;;;;;2.12;82.29;100712.97;1742949;82;21306;-81
2021/03/01 00:12:57;;;;;;;20.43;13.03;;;;;;;2.13;82.12;100712.88;1742866;82;21184;-81
2021/03/01 00:16:03;;;;;;;18.00;11.35;;;;;;;2.11;81.94;100717.50;1742956;82;21822;-81
2021/03/01 00:19:08;;;;;;;17.27;10.85;;;;;;;2.09;81.93;100716.77;1742953;82;21806;-81
2021/03/01 00:22:14;;;;;;;15.13;9.90;;;;;;;2.07;81.88;100714.69;1742920;82;21747;-81
2021/03/01 00:25:20;;;;;;;14.70;10.20;;;;;;;2.01;81.81;100718.66;1743032;82;21165;-81
2021/03/01 00:28:25;;;;;;;14.58;8.93;;;;;;;1.93;81.85;100721.54;1742877;82;21817;-81
2021/03/01 00:31:30;;;;;;;14.55;9.48;;;;;;;1.85;82.07;100726.16;1742889;82;21857;-81
2021/03/01 00:34:35;;;;;;;14.58;10.40;;;;;;;1.77;82.29;100722.66;1742937;82;21319;-81
2021/03/01 00:37:40;;;;;;;12.63;9.05;;;;;;;1.75;82.56;100723.27;1742891;82;21200;-81
2021/03/01 00:40:45;;;;;;;13.45;9.33;;;;;;;1.74;82.76;100722.89;1742848;82;21339;-81
2021/03/01 00:43:53;;;;;;;9.65;7.87;;;;;;;1.72;82.86;100730.70;1742811;82;21856;-81
2021/03/01 00:46:58;;;;;;;13.40;8.43;;;;;;;1.68;82.95;100731.89;1742874;82;21318;-81
2021/03/01 00:50:04;;;;;;;19.73;11.30;;;;;;;1.61;83.13;100728.78;1742938;82;21279;-81
2021/03/01 00:53:10;;;;;;;20.32;11.73;;;;;;;1.55;83.37;100730.54;1742884;82;21314;-81
2021/03/01 00:56:15;;;;;;;23.12;11.73;;;;;;;1.53;83.58;100728.45;1742816;82;21168;-81
2021/03/01 00:59:20;;;;;;;19.65;13.22;;;;;;;1.53;83.64;100729.80;1748496;82;21184;-81
2021/03/01 01:02:30;;;;;;;19.35;12.58;;;;;;;1.49;83.68;100735.02;1748344;82;21350;-81
2021/03/01 01:05:53;;;;;;;20.17;11.70;;;;;;;1.48;83.81;100735.52;1748495;82;21272;-81
2021/03/01 01:08:59;;;;;;;20.17;11.90;;;;;;;1.53;83.96;100735.19;1748505;82;21284;-81
2021/03/01 01:12:04;;;;;;;22.40;11.75;;;;;;;1.57;83.96;100736.70;1748355;82;21315;-81
2021/03/01 01:15:13;;;;;;;20.48;12.30;;;;;;;1.60;83.99;100743.70;1748490;82;21726;-81
2021/03/01 01:18:18;;;;;;;16.60;11.45;;;;;;;1.63;83.93;100744.84;1748440;82;21204;-81
2021/03/01 01:21:23;;;;;;;16.87;10.45;;;;;;;1.68;83.78;100747.58;1748394;82;21875;-81
2021/03/01 01:24:28;;;;;;;18.90;11.30;;;;;;;1.70;83.49;100744.30;1748419;82;21192;-81
2021/03/01 01:27:33;;;;;;;21.85;12.90;;;;;;;1.74;83.34;100754.36;1748398;82;21337;-81
2021/03/01 01:30:38;;;;;;;20.48;12.75;;;;;;;1.76;83.26;100750.60;1748518;82;21153;-81
2021/03/01 01:33:43;;;;;;;19.25;13.30;;;;;;;1.83;83.06;100748.80;1748482;82;21296;-81
2021/03/01 01:36:49;;;;;;;28.47;14.10;;;;;;;1.89;82.82;100748.39;1748450;82;21853;-81
2021/03/01 01:39:55;;;;;;;20.65;12.47;;;;;;;1.95;82.59;100753.34;1748402;82;21311;-81
2021/03/01 01:43:00;;;;;;;18.60;11.63;;;;;;;1.98;82.40;100749.08;1748233;82;21322;-81
2021/03/01 01:46:06;;;;;;;16.52;10.18;;;;;;;2.03;82.21;100750.95;1748485;82;21323;-81
2021/03/01 01:49:12;;;;;;;14.70;10.32;;;;;;;2.01;81.87;100755.58;1748418;82;21730;-81
2021/03/01 01:52:17;;;;;;;18.55;10.78;;;;;;;2.01;81.84;100750.19;1748405;82;21188;-81
2021/03/01 01:55:22;;;;;;;16.67;10.72;;;;;;;2.04;81.91;100749.48;1748568;82;21204;-81
2021/03/01 01:58:27;;;;;;;15.40;10.15;;;;;;;2.07;81.69;100758.31;1744168;82;21330;-81
2021/03/01 02:01:32;;;;;;;19.30;10.38;;;;;;;2.05;81.54;100757.95;1742771;82;21746;-81
2021/03/01 02:04:46;;;;;;;14.55;10.72;;;;;;;2.04;81.43;100760.28;1742821;82;21283;-81
2021/03/01 02:08:05;;;;;;;16.40;11.30;;;;;;;2.04;81.37;100771.07;1722699;82;21790;-81
2021/03/01 02:11:37;;;;;;;16.90;11.08;;;;;;;2.04;81.42;100767.02;1742470;82;21288;-81
2021/03/01 02:15:14;;;;;;;12.40;9.03;;;;;;;2.06;81.29;100773.65;1742787;82;21201;-82
2021/03/01 02:18:20;;;;;;;18.10;11.00;;;;;;;2.03;81.08;100784.69;1742821;82;21319;-81
2021/03/01 02:21:25;;;;;;;15.68;10.20;;;;;;;1.97;81.09;100782.41;1742828;82;21743;-81
2021/03/01 02:24:50;;;;;;;15.25;10.10;;;;;;;1.95;81.21;100785.22;1742902;82;21271;-81
2021/03/01 02:28:06;;;;;;;15.83;9.65;;;;;;;1.95;81.31;100792.45;1742835;82;21320;-81
2021/03/01 02:31:12;;;;;;;16.77;10.18;;;;;;;1.94;81.33;100788.90;1742777;82;21165;-81
2021/03/01 02:34:18;;;;;;;14.05;9.20;;;;;;;1.92;81.40;100792.17;1742830;82;21864;-81
2021/03/01 02:37:25;;;;;;;14.78;10.93;;;;;;;1.91;81.49;100790.94;1742830;82;21311;-81
2021/03/01 02:40:31;;;;;;;18.40;9.75;;;;;;;1.87;81.42;100793.48;1742859;82;21303;-81
2021/03/01 02:43:38;;;;;;;14.18;9.83;;;;;;;1.85;81.56;100798.13;1742749;82;21149;-81
2021/03/01 02:46:43;;;;;;;15.00;10.03;;;;;;;1.80;81.78;100801.16;1742826;82;21846;-81
2021/03/01 02:49:50;;;;;;;15.08;10.20;;;;;;;1.82;81.98;100807.78;1742818;82;21809;-81
2021/03/01 02:52:55;;;;;;;16.80;10.75;;;;;;;1.81;82.03;100808.27;1742718;82;21318;-81
2021/03/01 02:56:01;;;;;;;15.95;9.48;;;;;;;1.85;82.12;100812.48;1742997;82;21157;-81
2021/03/01 02:59:06;;;;;;;16.85;11.53;;;;;;;1.88;82.11;100810.89;1739613;82;21315;-81
2021/03/01 03:02:11;;;;;;;17.92;11.12;;;;;;;1.90;82.06;100817.55;1730793;83;21209;-81
2021/03/01 03:05:18;;;;;;;20.95;11.48;;;;;;;1.91;81.96;100815.23;1731011;83;21340;-81
2021/03/01 03:08:23;;;;;;;18.05;11.22;;;;;;;1.94;81.96;100823.11;1730859;83;21375;-81
2021/03/01 03:11:30;;;;;;;25.10;11.55;;;;;;;1.95;81.84;100819.44;1730933;83;21169;-81
2021/03/01 03:14:35;;;;;;;17.45;11.10;;;;;;;1.94;81.73;100820.41;1730891;83;21850;-81
2021/03/01 03:17:40;;;;;;;16.77;10.95;;;;;;;1.95;81.74;100818.95;1730914;83;21201;-81
2021/03/01 03:20:46;;;;;;;19.92;11.83;;;;;;;1.94;81.62;100817.72;1730937;83;21201;-81
2021/03/01 03:23:52;;;;;;;15.68;11.05;;;;;;;1.93;81.64;100824.95;1730820;83;21280;-81
2021/03/01 03:26:57;;;;;;;17.85;11.20;;;;;;;1.94;81.64;100824.46;1730867;83;21339;-81
2021/03/01 03:29:56;;;;;;;18.95;10.60;;;;;;;1.95;81.64;100834.27;1730599;83;21319;-81
2021/03/01 03:33:01;;;;;;;16.40;9.13;;;;;;;1.97;81.75;100835.88;1730847;83;21201;-81
2021/03/01 03:36:07;;;;;;;13.38;8.78;;;;;;;2.01;81.52;100828.44;1730835;83;21283;-81
2021/03/01 03:39:17;;;;;;;14.18;9.95;;;;;;;2.01;81.34;100833.34;1730847;83;21213;-81
2021/03/01 03:42:31;;;;;;;14.68;9.80;;;;;;;1.99;81.12;100838.00;1730852;83;21315;-81
2021/03/01 03:45:37;;;;;;;17.75;9.60;;;;;;;2.00;81.11;100837.02;1730854;83;21201;-81
2021/03/01 03:48:44;;;;;;;13.15;8.50;;;;;;;2.04;81.01;100839.02;1730915;83;21846;-81
2021/03/01 03:51:48;;;;;;;12.68;9.33;;;;;;;2.06;80.90;100839.77;1730666;83;21315;-81
2021/03/01 03:54:57;;;;;;;14.75;9.08;;;;;;;2.08;80.83;100845.94;1729547;83;21169;-81
2021/03/01 03:58:08;;;;;;;13.90;9.78;;;;;;;2.12;80.68;100848.80;1730945;83;21798;-81
2021/03/01 04:01:14;;;;;;;18.85;11.40;;;;;;;2.10;80.56;100850.72;1730884;82;21241;-81
2021/03/01 04:04:20;;;;;;;19.57;14.35;;;;;;;2.16;80.62;100857.52;1730907;83;21903;-81
2021/03/01 04:07:28;;;;;;;22.07;15.03;;;;;;;2.22;80.48;100859.30;1730757;83;21212;-81
2021/03/01 04:10:38;;;;;;;24.10;15.55;;;;;;;2.28;80.27;100862.05;1730884;83;21320;-81
2021/03/01 04:13:44;;;;;;;25.10;16.45;;;;;;;2.31;79.98;100867.23;1730897;83;21218;-81
2021/03/01 04:16:53;;;;;;;21.30;12.68;;;;;;;2.32;79.70;100872.14;1730682;83;21311;-81
2021/03/01 04:19:59;;;;;;;14.25;10.63;;;;;;;2.30;79.60;100866.34;1730772;83;21173;-81
2021/03/01 04:23:05;;;;;;;13.25;8.90;;;;;;;2.29;79.44;100864.63;1730887;83;21835;-81
2021/03/01 04:26:10;;;;;;;12.45;8.68;;;;;;;2.30;79.44;100866.34;1730880;83;21272;-81
2021/03/01 04:29:15;;;;;;;11.70;7.60;;;;;;;2.34;79.33;100872.39;1730870;83;21149;-81
2021/03/01 04:32:19;;;;;;;12.58;7.62;;;;;;;2.32;79.25;100880.25;1730861;81;21334;-81
2021/03/01 04:35:26;;;;;;;11.25;8.05;;;;;;;2.31;79.26;100880.73;1721391;82;21329;-81
2021/03/01 04:38:31;;;;;;;11.05;7.58;;;;;;;2.28;79.22;100886.34;1723245;82;21303;-81
2021/03/01 04:41:37;;;;;;;11.50;8.45;;;;;;;2.29;79.30;100888.06;1734019;82;21339;-81
2021/03/01 04:44:41;;;;;;;13.03;8.53;;;;;;;2.32;79.27;100892.39;1730090;82;21169;-81
2021/03/01 04:47:48;;;;;;;9.50;7.40;;;;;;;2.34;79.12;100899.39;1729997;82;21300;-81
2021/03/01 04:50:59;;;;;;;10.85;7.05;;;;;;;2.35;79.01;100902.95;1721439;82;21817;-81
2021/03/01 04:54:06;;;;;;;9.75;7.25;;;;;;;2.32;78.93;100908.10;1725318;82;21885;-81
2021/03/01 04:57:11;;;;;;;11.55;8.65;;;;;;;2.29;79.03;100910.52;1709216;82;21304;-81
2021/03/01 05:00:17;;;;;;;10.00;8.18;;;;;;;2.30;79.00;100917.64;1728799;82;21161;-81
2021/03/01 05:03:23;;;;;;;10.30;7.72;;;;;;;2.34;79.05;100917.44;1717860;83;21331;-81
2021/03/01 05:06:28;;;;;;;9.45;7.53;;;;;;;2.37;79.00;100921.28;1721557;82;21185;-81
2021/03/01 05:09:35;;;;;;;9.73;7.50;;;;;;;2.41;79.02;100925.00;1717594;82;21279;-81
2021/03/01 05:12:40;;;;;;;10.28;7.50;;;;;;;2.47;78.90;100930.45;1722048;82;21169;-81
2021/03/01 05:15:46;;;;;;;10.95;7.70;;;;;;;2.50;78.79;100933.80;1727857;82;21782;-81
2021/03/01 05:18:52;;;;;;;10.53;8.28;;;;;;;2.49;78.63;100936.59;1725157;82;21327;-81
2021/03/01 05:21:57;;;;;;;11.03;7.25;;;;;;;2.48;78.66;100942.97;1734496;82;21276;-81
2021/03/01 05:25:01;;;;;;;13.30;9.70;;;;;;;2.51;78.68;100944.11;1708375;83;21351;-82
2021/03/01 05:28:07;;;;;;;18.55;10.28;;;;;;;2.53;78.71;100950.25;1734465;82;21316;-81
2021/03/01 05:31:14;;;;;;;17.27;11.70;;;;;;;2.59;78.66;100959.30;1735151;82;21268;-81
2021/03/01 05:34:19;;;;;;;16.65;10.68;;;;;;;2.65;78.37;100961.55;1725265;82;21261;-81
2021/03/01 05:37:24;;;;;;;11.97;9.50;;;;;;;2.68;78.12;100972.14;1726386;82;21327;-81
2021/03/01 05:40:29;;;;;;;11.05;7.72;;;;;;;2.71;78.08;100973.25;1727397;82;21303;-81
2021/03/01 05:43:40;;;;;;;14.18;10.98;;;;;;;2.72;77.96;100975.46;1715530;81;21967;-82
2021/03/01 05:46:46;;;;;;;20.95;13.70;;;;;;;2.75;78.04;100976.11;1742180;81;21177;-81
2021/03/01 05:49:52;;;;;;;18.90;13.25;;;;;;;2.80;78.02;100977.99;1738204;81;21327;-81
2021/03/01 05:53:00;;;;;;;15.88;10.72;;;;;;;2.87;77.98;100983.84;1734725;81;21724;-80
2021/03/01 05:56:08;;;;;;;20.15;11.75;;;;;;;2.94;77.68;100990.52;1731523;82;21188;-81
2021/03/01 05:59:14;;;;;;;18.02;11.80;;;;;;;2.92;77.40;100995.18;1742618;81;21170;-79
2021/03/01 06:02:20;;;;;;;17.82;12.45;;;;;;;2.90;77.29;101000.30;1710319;82;21564;-80
2021/03/01 06:05:26;;;;;;;19.27;12.85;;;;;;;2.84;77.25;101004.81;1667299;84;21348;-80
2021/03/01 06:08:34;;;;;;;17.87;12.55;;;;;;;2.83;77.33;101000.38;1713541;82;21589;-82
2021/03/01 06:11:41;;;;;;;22.22;14.68;;;;;;;2.83;77.38;101011.19;1690947;84;21422;-79
2021/03/01 06:14:46;;;;;;;23.07;13.98;;;;;;;2.85;77.34;101010.58;1714605;82;21775;-80
2021/03/01 06:18:18;;;;;;;21.82;14.05;;;;;;;2.85;77.32;101017.33;1686302;84;21855;-79
2021/03/01 06:21:26;;;;;;;21.52;14.63;;;;;;;2.91;77.32;101022.30;1697965;82;21307;-79
2021/03/01 06:24:32;;;;;;;21.95;13.45;;;;;;;2.97;77.16;101025.93;1692137;82;21327;-79
2021/03/01 06:27:37;;;;;;;21.57;14.07;;;;;;;2.99;76.98;101028.02;1686853;84;21858;-79
2021/03/01 06:30:47;;;;;;;19.82;12.73;;;;;;;2.98;76.80;101031.70;1705417;83;21792;-79
2021/03/01 06:33:53;;;;;;;20.10;12.63;;;;;;;2.96;76.68;101034.49;1684046;83;21925;-79
2021/03/01 06:37:07;;;;;;;23.57;12.65;;;;;;;2.94;76.65;101044.56;1712359;82;21886;-79
2021/03/01 06:40:13;;;;;;;22.22;13.32;;;;;;;2.92;76.60;101048.37;1713037;82;21943;-79
2021/03/01 06:43:23;;;;;;;29.67;20.32;;;;;;;2.94;76.60;101051.81;1713402;82;21200;-79
2021/03/01 06:46:33;;;;;;;24.57;17.57;;;;;;;2.95;76.40;101051.69;1688116;84;21375;-79
2021/03/01 06:49:45;;;;;;;23.83;18.10;;;;;;;2.95;76.46;101061.64;1710262;82;21189;-81
2021/03/01 06:52:52;;;;;;;19.40;13.48;;;;;;;2.89;76.34;101069.70;1713863;82;22178;-80
2021/03/01 06:56:12;;;;;;;47.83;28.45;;;;;;;2.83;76.53;101065.23;1700277;83;21228;-81
2021/03/01 06:59:25;;;;;;;80.20;48.10;;;;;;;2.77;76.74;101070.06;1699809;83;21626;-80
2021/03/01 07:02:50;;;;;;;38.20;24.55;;;;;;;2.72;76.86;101068.17;1699469;83;21346;-80
2021/03/01 07:06:01;;;;;;;27.25;17.17;;;;;;;2.66;77.06;101067.75;1740482;81;21314;-78
2021/03/01 07:09:05;;;;;;;;;;;;;;;2.64;77.30;101078.67;1797168;78;21811;-78
2021/03/01 07:12:10;;;;;;;23.42;15.48;;;;;;;2.63;77.46;101076.05;1793102;77;20726;-79
2021/03/01 07:15:18;;;;;;;24.05;16.05;;;;;;;2.63;77.62;101078.27;1796720;78;21311;-79
2021/03/01 07:18:23;;;;;;;26.40;15.35;;;;;;;2.63;77.65;101082.81;1794176;78;21285;-80
2021/03/01 07:21:29;;;;;;;34.88;23.42;;;;;;;2.58;77.84;101083.62;1792873;78;21347;-81
2021/03/01 07:24:36;;;;;;;38.78;26.50;;;;;;;2.51;78.10;101086.75;1791925;78;21780;-81
2021/03/01 07:27:46;;;;;;;37.35;21.20;;;;;;;2.52;78.48;101091.66;1775041;78;21168;-79
2021/03/01 07:30:52;;;;;;;28.80;17.25;;;;;;;2.61;78.60;101098.27;1792583;78;21184;-78
2021/03/01 07:33:58;;;;;;;23.87;14.70;;;;;;;2.65;78.54;101100.66;1792133;78;21169;-79
2021/03/01 07:37:05;;;;;;;31.33;17.65;;;;;;;2.71;78.52;101091.25;1792602;78;21361;-80
2021/03/01 07:40:15;;;;;;;24.18;14.18;;;;;;;2.76;78.54;101091.30;1794996;79;21576;-79
2021/03/01 07:43:20;;;;;;;19.73;14.05;;;;;;;2.85;78.32;101097.05;1791152;78;21165;-79
2021/03/01 07:46:44;;;;;;;23.67;14.87;;;;;;;2.92;78.00;101094.31;1791782;78;21342;-81
2021/03/01 07:49:58;;;;;;;27.95;16.35;;;;;;;2.96;77.81;101103.90;1739650;78;21227;-79
2021/03/01 07:53:05;;;;;;;29.55;18.77;;;;;;;2.99;77.67;101103.69;1793783;78;21230;-80
2021/03/01 07:56:43;;;;;;;29.70;18.23;;;;;;;3.06;77.53;101106.36;1743037;80;21302;-80
2021/03/01 07:59:50;;;;;;;24.37;15.80;;;;;;;3.06;77.29;101105.01;1735018;81;21488;-79
2021/03/01 08:02:58;;;;;;;25.92;17.12;;;;;;;3.11;77.25;101105.54;1732421;81;21329;-77
2021/03/01 08:06:05;;;;;;;23.73;15.38;;;;;;;3.17;77.21;101109.64;1734542;81;22275;-78
2021/03/01 08:09:11;;;;;;;27.82;16.37;;;;;;;3.22;76.98;101113.73;1735854;81;21309;-80
2021/03/01 08:12:41;;;;;;;31.02;19.27;;;;;;;3.23;76.94;101114.59;1733415;81;21230;-81
2021/03/01 08:15:50;;;;;;;32.30;19.23;;;;;;;3.25;76.80;101114.88;1734607;81;21659;-79
2021/03/01 08:19:07;;;;;;;29.90;16.37;;;;;;;3.30;76.69;101127.58;1733444;81;21802;-81
2021/03/01 08:22:21;;;;;;;29.90;18.48;;;;;;;3.32;76.49;101132.88;1730500;81;21624;-79
2021/03/01 08:25:27;;;;;;;31.97;24.60;;;;;;;3.32;76.31;101131.52;1728099;81;21199;-78
2021/03/01 08:28:39;;;;;;;30.95;19.23;;;;;;;3.32;76.31;101125.63;1694391;81;21296;-79
2021/03/01 08:31:45;;;;;;;30.32;18.20;;;;;;;3.40;76.44;101142.66;1734397;81;21806;-83
2021/03/01 08:34:51;;;;;;;27.85;16.35;;;;;;;3.47;76.03;101152.05;1736121;81;21705;-80
2021/03/01 08:37:54;;;;;;;21.75;16.17;;;;;;;3.47;75.79;101145.78;1735530;81;21245;-82
2021/03/01 08:41:03;;;;;;;22.25;14.85;;;;;;;3.48;75.69;101147.04;1737958;81;21838;-80
2021/03/01 08:44:09;;;;;;;30.65;16.65;;;;;;;3.52;75.56;101151.72;1738057;81;21699;-81
2021/03/01 08:47:15;;;;;;;28.98;16.87;;;;;;;3.47;75.32;101153.40;1734324;81;21385;-81
2021/03/01 08:50:22;;;;;;;27.55;17.30;;;;;;;3.43;75.30;101153.73;1735970;81;21347;-82
2021/03/01 08:53:34;;;;;;;20.20;13.50;;;;;;;3.42;75.51;101144.75;1733417;81;21336;-80
2021/03/01 08:56:42;;;;;;;20.77;15.15;;;;;;;3.46;75.65;101148.11;1741190;80;21175;-81
2021/03/01 08:59:48;;;;;;;23.87;15.40;;;;;;;3.48;75.59;101155.61;1743675;80;21716;-83
2021/03/01 09:02:53;;;;;;;28.60;15.90;;;;;;;3.45;75.40;101151.80;1739494;80;21341;-82
2021/03/01 09:06:24;;;;;;;24.05;14.90;;;;;;;3.45;75.60;101147.25;1739728;80;21265;-83
2021/03/01 09:09:31;;;;;;;21.70;13.88;;;;;;;3.51;75.79;101154.05;1739971;80;21404;-80
2021/03/01 09:12:36;;;;;;;23.05;13.80;;;;;;;3.48;75.82;101152.91;1741016;80;21899;-83
2021/03/01 09:15:42;;;;;;;19.77;14.38;;;;;;;3.49;75.98;101160.08;1737945;80;21510;-80
2021/03/01 09:18:50;;;;;;;21.52;13.98;;;;;;;3.45;76.06;101166.67;1718605;82;21781;-82
2021/03/01 09:21:57;;;;;;;17.42;12.10;;;;;;;3.42;76.00;101162.83;1697643;82;21636;-82
2021/03/01 09:25:04;;;;;;;18.60;11.45;;;;;;;3.48;75.85;101161.02;1701086;82;21614;-82
2021/03/01 09:28:12;;;;;;;13.08;8.90;;;;;;;3.55;74.70;101156.42;1717830;82;21311;-83
2021/03/01 09:31:19;;;;;;;12.58;8.73;;;;;;;3.65;73.83;101156.63;1700648;82;21295;-84
2021/03/01 09:34:30;;;;;;;12.03;8.45;;;;;;;3.73;72.97;101165.55;1716850;82;21301;-84
2021/03/01 09:37:36;;;;;;;11.33;8.03;;;;;;;3.76;72.54;101167.52;1717183;82;21199;-82
2021/03/01 09:40:42;;;;;;;9.58;7.25;;;;;;;3.76;70.96;101163.95;1714933;82;21468;-83
2021/03/01 09:43:49;;;;;;;13.00;8.13;;;;;;;3.77;70.96;101172.47;1716815;82;21867;-80
2021/03/01 09:46:58;;;;;;;10.90;7.58;;;;;;;3.84;70.41;101177.80;1692210;82;21173;-83
2021/03/01 09:50:05;;;;;;;11.48;8.65;;;;;;;3.88;70.66;101183.86;1717005;82;21165;-84
2021/03/01 09:53:14;;;;;;;10.05;7.10;;;;;;;3.93;70.84;101179.83;1720097;82;21319;-84
2021/03/01 09:56:21;;;;;;;11.10;7.22;;;;;;;4.09;70.15;101174.14;1716270;82;21665;-83
2021/03/01 09:59:44;;;;;;;7.30;5.40;;;;;;;4.26;69.37;101175.61;1726357;81;21309;-82
2021/03/01 10:02:50;;;;;;;5.97;4.47;;;;;;;4.26;67.85;101169.70;1730986;81;21335;-82
2021/03/01 10:05:57;;;;;;;7.53;5.47;;;;;;;4.24;67.06;101172.16;1698201;81;21191;-83
2021/03/01 10:09:11;;;;;;;8.38;5.40;;;;;;;4.28;66.13;101159.63;1725655;81;21571;-79
2021/03/01 10:12:17;;;;;;;10.35;6.30;;;;;;;4.33;65.74;101166.06;1729355;81;21161;-82
2021/03/01 10:15:25;;;;;;;7.47;4.80;;;;;;;4.45;66.14;101172.37;1728673;81;21185;-79
2021/03/01 10:18:36;;;;;;;6.10;4.50;;;;;;;4.59;65.82;101171.70;1729866;81;21953;-81
2021/03/01 10:21:47;;;;;;;7.85;5.33;;;;;;;4.72;64.71;101170.28;1726195;81;21184;-81
2021/03/01 10:24:55;;;;;;;6.42;4.78;;;;;;;4.80;64.69;101168.35;1726252;81;21593;-81
2021/03/01 10:28:01;;;;;;;6.33;4.37;;;;;;;4.85;64.02;101167.50;1729870;81;21274;-81
2021/03/01 10:31:21;;;;;;;7.05;5.00;;;;;;;4.98;64.17;101171.45;1729569;81;21305;-83
2021/03/01 10:34:38;;;;;;;6.35;4.40;;;;;;;5.12;63.44;101176.17;1731903;81;21176;-83
2021/03/01 10:37:45;;;;;;;6.58;4.80;;;;;;;5.20;61.75;101181.00;1726484;80;21540;-83
2021/03/01 10:40:50;;;;;;;9.15;6.17;;;;;;;5.17;61.31;101194.80;1726278;81;21198;-80
2021/03/01 10:44:11;;;;;;;8.80;6.08;;;;;;;5.05;61.49;101184.92;1729981;81;21316;-84
2021/03/01 10:47:31;;;;;;;7.10;5.53;;;;;;;4.96;62.44;101189.70;1728299;80;21205;-81
2021/03/01 10:50:38;;;;;;;13.43;8.90;;;;;;;4.91;62.53;101191.91;1728549;81;21828;-82
2021/03/01 10:53:44;;;;;;;10.90;5.78;;;;;;;4.75;62.94;101197.62;1726202;81;21259;-82
2021/03/01 10:56:51;;;;;;;8.60;5.97;;;;;;;4.71;62.63;101201.08;1724961;81;21201;-82
2021/03/01 10:59:59;;;;;;;8.25;6.00;;;;;;;4.74;61.67;101200.83;1725941;81;21878;-82
2021/03/01 11:03:05;;;;;;;13.35;7.67;;;;;;;4.75;61.70;101195.80;1726198;81;21290;-80
2021/03/01 11:06:13;;;;;;;9.28;6.87;;;;;;;4.74;61.83;101194.55;1723483;81;21353;-81
2021/03/01 11:09:21;;;;;;;8.40;6.03;;;;;;;4.69;62.06;101192.19;1726130;81;21191;-81
2021/03/01 11:12:28;;;;;;;9.23;6.60;;;;;;;4.63;62.66;101189.95;1726997;81;21187;-82
2021/03/01 11:15:35;;;;;;;10.38;7.12;;;;;;;4.59;62.50;101193.88;1705802;81;21178;-84
2021/03/01 11:18:44;;;;;;;10.30;6.37;;;;;;;4.59;62.83;101192.52;1727442;81;21945;-84
2021/03/01 11:21:51;;;;;;;11.03;6.53;;;;;;;4.54;61.82;101192.00;1724797;81;21232;-84
2021/03/01 11:24:57;;;;;;;13.20;7.62;;;;;;;4.41;60.92;101197.97;1725699;81;21245;-82
2021/03/01 11:28:10;;;;;;;12.80;8.88;;;;;;;4.31;61.08;101190.53;1726580;81;22145;-82
2021/03/01 11:31:17;;;;;;;31.42;17.87;;;;;;;4.30;61.13;101188.80;1725848;81;21227;-81
2021/03/01 11:34:23;;;;;;;21.90;12.75;;;;;;;4.24;60.47;101195.19;1727649;81;21216;-83
2021/03/01 11:37:29;;;;;;;20.27;10.68;;;;;;;4.24;59.94;101197.40;1725167;81;21324;-83
2021/03/01 11:40:39;;;;;;;;;;;;;;;4.27;59.70;101200.34;1733736;81;21303;-83
2021/03/01 11:43:48;;;;;;;15.13;8.75;;;;;;;4.28;60.31;101200.72;1729484;81;20217;-84
2021/03/01 11:46:54;;;;;;;13.80;7.55;;;;;;;4.25;61.17;101209.09;1729459;81;21202;-82
2021/03/01 11:50:00;;;;;;;13.53;6.83;;;;;;;4.23;60.01;101201.55;1729183;81;21827;-82
2021/03/01 11:53:17;;;;;;;11.05;5.87;;;;;;;4.27;59.80;101206.63;1717561;81;21184;-81
2021/03/01 11:56:16;;;;;;;8.78;5.20;;;;;;;4.33;59.11;101213.45;1658135;84;21223;-83
2021/03/01 11:59:22;;;;;;;27.45;13.68;;;;;;;4.35;57.62;101218.26;1670823;84;21608;-81
2021/03/01 12:02:31;;;;;;;36.10;21.10;;;;;;;4.29;58.25;101218.23;1674539;84;21732;-84
2021/03/01 12:05:38;;;;;;;23.93;11.30;;;;;;;4.22;58.16;101215.59;1674232;84;21263;-84
2021/03/01 12:08:53;;;;;;;23.00;13.62;;;;;;;4.20;59.75;101220.75;1839601;76;22176;-83
2021/03/01 12:12:17;;;;;;;16.32;10.80;;;;;;;4.10;62.00;101220.57;1806138;77;21349;-81
2021/03/01 12:15:36;;;;;;;14.63;9.78;;;;;;;4.01;63.85;101228.02;1786661;78;21196;-83
2021/03/01 12:18:48;;;;;;;17.77;11.75;;;;;;;3.80;64.81;101227.22;1790919;78;21354;-85
2021/03/01 12:21:51;;;;;;;14.50;8.98;;;;;;;3.59;65.47;101222.00;1792207;78;21882;-84
2021/03/01 12:24:58;;;;;;;11.30;8.25;;;;;;;3.51;65.22;101223.03;1790471;78;22006;-84
2021/03/01 12:28:07;;;;;;;11.08;7.85;;;;;;;3.47;65.47;101214.26;1767509;78;21172;-83
2021/03/01 12:31:22;;;;;;;14.45;8.93;;;;;;;3.49;65.53;101220.94;1792230;78;21294;-81
2021/03/01 12:34:29;;;;;;;11.73;8.03;;;;;;;3.48;65.91;101227.30;1791416;78;21654;-81
2021/03/01 12:37:42;;;;;;;13.32;7.78;;;;;;;3.49;66.29;101224.50;1787269;78;21537;-80
2021/03/01 12:40:53;;;;;;;14.90;7.60;;;;;;;3.49;65.71;101235.81;1788126;77;21951;-80
2021/03/01 12:44:04;;;;;;;14.25;8.53;;;;;;;3.44;65.62;101238.84;1792272;78;21173;-85
2021/03/01 12:47:33;;;;;;;13.43;8.18;;;;;;;3.44;65.47;101233.92;1790777;78;21196;-85
2021/03/01 12:50:53;;;;;;;13.05;8.18;;;;;;;3.46;64.79;101236.87;1791609;78;21219;-86
2021/03/01 12:54:09;;;;;;;12.88;7.03;;;;;;;3.49;64.35;101229.05;1791399;78;21207;-83
2021/03/01 12:57:16;;;;;;;11.05;6.60;;;;;;;3.57;63.82;101229.34;1789222;79;21212;-83
2021/03/01 13:00:22;;;;;;;10.85;7.10;;;;;;;3.59;63.86;101232.83;1789501;78;21296;-82
2021/03/01 13:03:27;;;;;;;12.50;6.55;;;;;;;3.54;64.16;101237.70;1791953;78;21297;-81
2021/03/01 13:06:35;;;;;;;15.95;9.95;;;;;;;3.56;64.65;101228.98;1787751;78;21256;-80
2021/03/01 13:09:42;;;;;;;11.97;7.28;;;;;;;3.59;64.30;101238.23;1778403;79;21287;-80
2021/03/01 13:12:48;;;;;;;9.73;5.45;;;;;;;3.57;64.35;101241.52;1777898;79;22169;-80
2021/03/01 13:15:55;;;;;;;8.58;6.28;;;;;;;3.59;64.37;101245.86;1775302;79;21196;-81
2021/03/01 13:19:02;;;;;;;13.93;6.40;;;;;;;3.54;64.14;101253.44;1778341;79;21276;-81
2021/03/01 13:22:09;;;;;;;17.05;7.58;;;;;;;3.48;64.09;101243.52;1782248;79;21957;-81
2021/03/01 13:25:15;;;;;;;14.10;7.37;;;;;;;3.44;64.37;101252.36;1780411;79;21200;-81
2021/03/01 13:28:21;;;;;;;12.18;7.75;;;;;;;3.46;64.92;101252.25;1778631;79;21161;-81
2021/03/01 13:31:27;;;;;;;8.68;5.47;;;;;;;3.51;65.44;101252.30;1777142;79;21686;-81
2021/03/01 13:34:34;;;;;;;11.93;6.35;;;;;;;3.57;64.94;101252.34;1782332;79;22116;-83
2021/03/01 13:37:41;;;;;;;12.80;8.40;;;;;;;3.55;64.56;101254.30;1781462;79;22173;-82
2021/03/01 13:40:46;;;;;;;13.70;6.78;;;;;;;3.52;65.03;101257.22;1780727;79;21853;-83
2021/03/01 13:43:52;;;;;;;10.88;6.78;;;;;;;3.46;65.83;101259.01;1780847;79;21303;-81
2021/03/01 13:47:00;;;;;;;10.20;6.83;;;;;;;3.44;65.56;101259.12;1784196;79;21224;-80
2021/03/01 13:50:04;;;;;;;11.93;6.80;;;;;;;3.35;65.75;101258.41;1782257;79;21743;-81
2021/03/01 13:53:09;;;;;;;10.53;6.50;;;;;;;3.28;65.94;101263.36;1761744;79;21311;-79
2021/03/01 13:56:14;;;;;;;10.15;6.17;;;;;;;3.24;66.46;101267.25;1778611;79;21154;-80
2021/03/01 13:59:20;;;;;;;12.78;7.25;;;;;;;3.22;66.27;101257.53;1779129;79;21656;-80
2021/03/01 14:02:26;;;;;;;12.55;7.37;;;;;;;3.27;66.14;101271.59;1779848;79;21200;-80
2021/03/01 14:05:44;;;;;;;16.20;8.80;;;;;;;3.31;66.41;101263.16;1779020;79;21295;-80
2021/03/01 14:08:50;;;;;;;11.75;7.05;;;;;;;3.36;66.60;101266.04;1779921;79;22446;-80
2021/03/01 14:11:56;;;;;;;12.13;6.53;;;;;;;3.33;66.56;101264.40;1779903;79;21304;-81
2021/03/01 14:15:01;;;;;;;12.70;6.87;;;;;;;3.32;66.29;101260.83;1770714;79;21240;-80
2021/03/01 14:18:06;;;;;;;9.83;6.37;;;;;;;3.37;66.30;101263.70;1778552;79;21676;-80
2021/03/01 14:21:11;;;;;;;11.40;6.53;;;;;;;3.43;66.58;101261.92;1777414;79;21682;-80
2021/03/01 14:24:16;;;;;;;13.78;6.50;;;;;;;3.46;66.37;101267.13;1784782;79;21264;-79
2021/03/01 14:27:21;;;;;;;9.88;6.05;;;;;;;3.51;66.12;101263.61;1777288;79;21283;-80
2021/03/01 14:30:27;;;;;;;14.33;7.25;;;;;;;3.56;65.54;101265.00;1780822;79;21295;-81